Time;durP1;ratioP1;P1;durP2;ratioP2;P2;SDS_P1;SDS_P2;PMS_P1;PMS_P2;Temp;Humidity;BMP_temperature;BMP_pressure;BME280_temperature;BME280_humidity;BME280_pressure;Samples;Min_cycle;Max_cycle;Signal;HPM_P1;HPM_P2
2021/12/04 00:01:12;;;;;;;25.20;15.38;;;5.50;99.90;;;;;;5039862;28;20060;-65
2021/12/04 00:03:41;;;;;;;24.05;15.55;;;5.50;99.90;;;;;;5040163;28;20041;-63
2021/12/04 00:06:23;;;;;;;23.15;15.15;;;5.50;99.90;;;;;;5047998;28;20686;-66
2021/12/04 00:08:49;;;;;;;24.23;15.70;;;5.50;99.90;;;;;;5045873;28;20067;-65
2021/12/04 00:11:15;;;;;;;26.20;15.93;;;5.50;99.90;;;;;;5046229;28;20146;-65
2021/12/04 00:13:40;;;;;;;21.85;14.90;;;5.50;99.90;;;;;;5039654;28;20041;-65
2021/12/04 00:16:06;;;;;;;22.05;14.63;;;5.50;99.90;;;;;;5036573;28;20049;-65
2021/12/04 00:18:32;;;;;;;24.90;15.85;;;5.50;99.90;;;;;;5041523;28;20064;-66
2021/12/04 00:20:57;;;;;;;25.60;15.20;;;5.50;99.90;;;;;;5042030;28;20071;-65
2021/12/04 00:23:23;;;;;;;26.08;16.30;;;5.50;99.90;;;;;;5038821;28;20127;-65
2021/12/04 00:25:49;;;;;;;21.75;14.57;;;5.60;99.90;;;;;;5043572;28;20056;-65
2021/12/04 00:28:14;;;;;;;27.17;16.63;;;5.50;99.90;;;;;;5040780;28;20045;-65
2021/12/04 00:30:40;;;;;;;24.27;15.65;;;5.50;99.90;;;;;;5038564;28;20391;-65
2021/12/04 00:33:15;;;;;;;22.20;15.35;;;5.50;99.90;;;;;;5045075;28;20095;-66
2021/12/04 00:51:32;;;;;;;19.17;13.65;;;5.60;99.90;;;;;;5046754;28;20049;-65
2021/12/04 00:53:57;;;;;;;21.88;14.13;;;5.70;99.90;;;;;;5037667;28;20042;-65
2021/12/04 00:56:23;;;;;;;21.67;13.85;;;5.70;99.90;;;;;;5038636;28;20049;-65
2021/12/04 00:58:49;;;;;;;19.52;13.15;;;5.70;99.90;;;;;;5041327;28;20036;-65
2021/12/04 01:01:16;;;;;;;21.05;14.07;;;5.60;99.90;;;;;;5040731;28;20128;-65
2021/12/04 01:03:41;;;;;;;17.35;12.13;;;5.70;99.90;;;;;;5044088;28;20069;-65
2021/12/04 01:06:07;;;;;;;19.00;13.15;;;5.70;99.90;;;;;;5040710;28;20511;-65
2021/12/04 01:08:34;;;;;;;16.23;11.68;;;5.70;99.90;;;;;;5038212;28;20491;-65
2021/12/04 01:11:02;;;;;;;16.08;12.00;;;5.70;99.90;;;;;;5046031;28;20044;-63
2021/12/04 01:13:28;;;;;;;13.98;10.45;;;5.70;99.90;;;;;;5034649;28;20145;-66
2021/12/04 01:15:53;;;;;;;15.40;11.35;;;5.70;99.90;;;;;;5044536;28;20120;-65
2021/12/04 01:18:19;;;;;;;13.88;10.82;;;5.70;99.90;;;;;;5042649;28;20120;-65
2021/12/04 01:20:44;;;;;;;14.02;10.50;;;5.70;99.90;;;;;;5039865;28;20045;-66
2021/12/04 01:23:10;;;;;;;13.38;9.52;;;5.70;99.90;;;;;;5041548;28;20383;-65
2021/12/04 01:25:37;;;;;;;15.05;10.55;;;5.70;99.90;;;;;;5040216;28;20034;-65
2021/12/04 01:28:04;;;;;;;14.00;10.00;;;5.70;99.90;;;;;;5039018;28;20487;-65
2021/12/04 01:30:30;;;;;;;13.32;10.63;;;5.70;99.90;;;;;;5044382;28;20095;-65
2021/12/04 01:32:55;;;;;;;12.85;9.98;;;5.70;99.90;;;;;;5044199;28;20037;-65
2021/12/04 01:35:21;;;;;;;12.38;9.63;;;5.70;99.90;;;;;;5047745;28;20036;-66
2021/12/04 01:37:47;;;;;;;12.60;9.98;;;5.70;99.90;;;;;;5040779;28;20695;-65
2021/12/04 01:40:13;;;;;;;14.18;9.85;;;5.70;99.90;;;;;;5046689;28;20056;-66
2021/12/04 01:42:39;;;;;;;12.13;9.93;;;5.70;99.90;;;;;;5049070;28;20088;-66
2021/12/04 01:45:06;;;;;;;13.88;10.13;;;5.70;99.90;;;;;;5042043;28;20059;-65
2021/12/04 01:47:31;;;;;;;12.60;9.50;;;5.60;99.90;;;;;;5046522;28;20041;-65
2021/12/04 01:49:59;;;;;;;13.43;9.75;;;5.60;99.90;;;;;;5049395;28;20119;-65
2021/12/04 01:52:26;;;;;;;13.93;10.52;;;5.70;99.90;;;;;;5048296;28;20045;-65
2021/12/04 01:54:52;;;;;;;13.00;9.40;;;5.70;99.90;;;;;;5037359;28;20044;-65
2021/12/04 01:57:20;;;;;;;12.05;9.77;;;5.60;99.90;;;;;;5043231;28;20045;-65
2021/12/04 01:59:46;;;;;;;12.48;9.52;;;5.70;99.90;;;;;;5038642;28;20065;-65
2021/12/04 02:02:12;;;;;;;12.32;10.02;;;5.70;99.90;;;;;;5038255;28;20037;-65
2021/12/04 02:04:38;;;;;;;12.45;9.85;;;5.60;99.90;;;;;;5041304;28;20071;-65
2021/12/04 02:07:04;;;;;;;12.57;9.70;;;5.60;99.90;;;;;;5045775;28;20400;-65
2021/12/04 02:09:32;;;;;;;13.00;9.90;;;5.70;99.90;;;;;;5037652;28;20052;-65
2021/12/04 02:11:58;;;;;;;13.20;9.70;;;5.70;99.90;;;;;;5034637;28;20059;-66
2021/12/04 02:14:23;;;;;;;12.65;10.13;;;5.70;99.90;;;;;;5039848;28;20415;-65
2021/12/04 02:16:50;;;;;;;12.65;9.82;;;5.60;99.90;;;;;;5039224;28;20123;-66
2021/12/04 02:19:17;;;;;;;12.45;9.82;;;5.60;99.90;;;;;;5044655;28;20148;-65
2021/12/04 02:21:42;;;;;;;14.73;10.13;;;5.60;99.90;;;;;;5038963;28;20092;-65
2021/12/04 02:24:08;;;;;;;13.15;9.70;;;5.70;99.90;;;;;;5044830;28;20094;-65
2021/12/04 02:26:33;;;;;;;12.07;9.80;;;5.60;99.90;;;;;;5042510;28;20635;-65
2021/12/04 02:28:59;;;;;;;12.60;9.27;;;5.60;99.90;;;;;;5035922;28;20063;-65
2021/12/04 02:31:26;;;;;;;13.07;10.38;;;5.60;99.90;;;;;;5039484;28;20057;-65
2021/12/04 02:33:52;;;;;;;12.45;9.52;;;5.60;99.90;;;;;;5041699;28;20034;-66
2021/12/04 02:36:18;;;;;;;14.52;10.55;;;5.70;99.90;;;;;;5036388;28;20044;-66
2021/12/04 02:38:49;;;;;;;11.93;9.48;;;5.60;99.90;;;;;;5052141;28;20384;-65
2021/12/04 02:41:15;;;;;;;12.75;9.82;;;5.70;99.90;;;;;;5036695;28;20385;-65
2021/12/04 02:43:41;;;;;;;12.85;9.63;;;5.60;99.90;;;;;;5032139;28;20049;-65
2021/12/04 02:46:07;;;;;;;11.10;8.60;;;5.60;99.90;;;;;;5041464;28;20052;-65
2021/12/04 02:48:32;;;;;;;13.30;9.32;;;5.60;99.90;;;;;;5038637;28;20036;-66
2021/12/04 02:50:58;;;;;;;12.13;8.85;;;5.60;99.90;;;;;;5039439;28;20140;-65
2021/12/04 02:53:24;;;;;;;13.68;9.55;;;5.60;99.90;;;;;;5042613;28;20087;-65
2021/12/04 02:55:50;;;;;;;12.10;9.00;;;5.60;99.90;;;;;;5036623;28;20053;-65
2021/12/04 02:58:17;;;;;;;13.02;9.50;;;5.70;99.90;;;;;;5040896;28;20041;-65
2021/12/04 03:00:47;;;;;;;14.30;9.80;;;5.60;99.90;;;;;;5046676;28;20053;-65
2021/12/04 03:03:14;;;;;;;11.50;9.07;;;5.70;99.90;;;;;;5043066;28;20162;-65
2021/12/04 03:05:40;;;;;;;11.80;8.73;;;5.70;99.90;;;;;;5040455;28;20124;-65
2021/12/04 03:08:07;;;;;;;12.73;9.57;;;5.70;99.90;;;;;;5048710;28;20139;-65
2021/12/04 03:10:33;;;;;;;11.65;8.52;;;5.70;99.90;;;;;;5045704;28;20420;-63
2021/12/04 03:12:59;;;;;;;12.73;9.07;;;5.70;99.90;;;;;;5043672;28;20128;-63
2021/12/04 03:15:24;;;;;;;13.32;9.48;;;5.70;99.90;;;;;;5039256;28;20166;-63
2021/12/04 03:17:51;;;;;;;11.43;8.65;;;5.70;99.90;;;;;;5045882;28;20053;-63
2021/12/04 03:20:17;;;;;;;11.43;8.57;;;5.70;99.90;;;;;;5046592;28;20057;-63
2021/12/04 03:22:45;;;;;;;10.45;7.95;;;5.70;99.90;;;;;;5039544;28;20046;-63
2021/12/04 03:25:12;;;;;;;11.80;8.60;;;5.70;99.90;;;;;;5044148;28;20072;-63
2021/12/04 03:27:39;;;;;;;10.85;8.02;;;5.70;99.90;;;;;;5039852;28;20059;-64
2021/12/04 03:30:11;;;;;;;11.32;8.57;;;5.70;99.90;;;;;;5041564;28;20045;-63
2021/12/04 03:35:19;;;;;;;10.07;7.78;;;5.70;99.90;;;;;;5047186;28;20053;-63
2021/12/04 03:43:07;;;;;;;11.02;8.50;;;5.60;99.90;;;;;;5040494;28;20057;-64
2021/12/04 03:45:35;;;;;;;12.82;8.73;;;5.70;99.90;;;;;;5043799;28;20041;-64
2021/12/04 03:48:08;;;;;;;10.63;8.23;;;5.70;99.90;;;;;;5046060;28;20041;-63
2021/12/04 03:50:34;;;;;;;10.18;7.60;;;5.70;99.90;;;;;;5042743;28;20480;-63
2021/12/04 03:53:00;;;;;;;10.40;7.50;;;5.70;99.90;;;;;;5041517;28;20037;-63
2021/12/04 03:55:26;;;;;;;10.40;7.85;;;5.70;99.90;;;;;;5041039;28;20098;-63
2021/12/04 03:57:52;;;;;;;10.82;8.48;;;5.70;99.90;;;;;;5046132;28;20176;-65
2021/12/04 04:00:23;;;;;;;11.60;8.30;;;5.70;99.90;;;;;;5047514;28;20484;-65
2021/12/04 04:02:48;;;;;;;12.77;8.75;;;5.70;99.90;;;;;;5046260;28;20054;-65
2021/12/04 04:05:14;;;;;;;11.02;7.70;;;5.70;99.90;;;;;;5042560;28;20041;-65
2021/12/04 04:07:40;;;;;;;10.65;8.02;;;5.70;99.90;;;;;;5043276;28;20068;-65
2021/12/04 04:10:06;;;;;;;11.30;8.18;;;5.70;99.90;;;;;;5044981;28;20053;-65
2021/12/04 04:12:32;;;;;;;11.20;8.32;;;5.70;99.90;;;;;;5038043;28;20064;-65
2021/12/04 04:14:58;;;;;;;9.90;7.95;;;5.70;99.90;;;;;;5044814;28;20049;-65
2021/12/04 04:17:26;;;;;;;10.88;8.35;;;5.70;99.90;;;;;;5045350;28;20106;-65
2021/12/04 04:19:51;;;;;;;10.30;8.02;;;5.70;99.90;;;;;;5044119;28;20049;-65
2021/12/04 04:22:17;;;;;;;10.48;8.23;;;5.80;99.90;;;;;;5049470;28;20141;-65
2021/12/04 04:24:42;;;;;;;10.57;8.18;;;5.70;99.90;;;;;;5043567;28;20051;-64
2021/12/04 04:27:08;;;;;;;11.75;8.63;;;5.70;99.90;;;;;;5044397;28;20033;-63
2021/12/04 04:29:33;;;;;;;10.65;8.10;;;5.80;99.90;;;;;;5035399;28;20049;-63
2021/12/04 04:32:00;;;;;;;12.05;9.25;;;5.80;99.90;;;;;;5046119;28;20037;-64
2021/12/04 05:01:57;;;;;;;12.65;9.15;;;5.80;99.90;;;;;;5048377;28;20049;-64
2021/12/04 05:15:34;;;;;;;13.13;9.65;;;5.80;99.90;;;;;;5052818;28;20053;-64
2021/12/04 05:18:18;;;;;;;12.13;8.98;;;5.90;99.90;;;;;;5041813;28;20476;-63
2021/12/04 05:21:27;;;;;;;13.38;9.88;;;5.80;99.90;;;;;;5046014;28;20097;-63
2021/12/04 05:23:40;;;;;;;15.32;9.77;;;5.90;99.90;;;;;;5035138;28;20052;-64
2021/12/04 05:26:07;;;;;;;13.95;9.80;;;5.90;99.90;;;;;;5044314;28;20377;-63
2021/12/04 05:28:33;;;;;;;13.82;10.23;;;5.90;99.90;;;;;;5041859;28;20037;-64
2021/12/04 05:31:00;;;;;;;15.02;9.77;;;5.90;99.90;;;;;;5042185;28;20045;-64
2021/12/04 05:33:26;;;;;;;16.08;10.38;;;5.80;99.90;;;;;;5033110;28;20123;-64
2021/12/04 05:35:52;;;;;;;13.85;10.02;;;5.80;99.90;;;;;;5043702;28;20076;-65
2021/12/04 05:38:18;;;;;;;12.82;9.48;;;5.80;99.90;;;;;;5035441;28;20527;-65
2021/12/04 05:40:44;;;;;;;13.10;9.77;;;5.80;99.90;;;;;;5038874;28;20751;-64
2021/12/04 05:43:13;;;;;;;15.93;10.98;;;5.80;99.90;;;;;;5034016;28;20055;-65
2021/12/04 05:45:43;;;;;;;14.85;9.75;;;5.80;99.90;;;;;;5039676;28;20114;-64
2021/12/04 05:48:16;;;;;;;17.90;11.32;;;5.80;99.90;;;;;;5040263;28;20049;-64
2021/12/04 05:51:00;;;;;;;14.98;10.45;;;5.80;99.90;;;;;;5038513;28;20057;-65
2021/12/04 05:53:40;;;;;;;15.82;10.40;;;5.80;99.90;;;;;;5042649;28;20144;-64
2021/12/04 05:56:06;;;;;;;17.10;10.88;;;5.80;99.90;;;;;;5045840;28;20036;-64
2021/12/04 05:58:33;;;;;;;15.48;10.10;;;5.80;99.90;;;;;;5040919;28;20747;-64
2021/12/04 06:01:02;;;;;;;18.10;11.05;;;5.80;99.90;;;;;;5040994;28;20048;-64
2021/12/04 06:03:28;;;;;;;13.98;10.18;;;5.80;99.90;;;;;;5040904;28;20053;-64
2021/12/04 06:05:53;;;;;;;14.52;10.43;;;5.80;99.90;;;;;;5038804;28;20052;-64
2021/12/04 06:08:19;;;;;;;19.38;11.07;;;5.80;99.90;;;;;;5038891;28;20033;-65
2021/12/04 06:10:47;;;;;;;16.67;11.55;;;5.80;99.90;;;;;;5041893;28;20100;-65
2021/12/04 06:13:12;;;;;;;15.63;10.93;;;5.80;99.90;;;;;;5038901;28;20503;-65
2021/12/04 06:15:38;;;;;;;14.85;10.05;;;5.80;99.90;;;;;;5039140;28;20132;-64
2021/12/04 06:18:04;;;;;;;14.25;10.20;;;5.80;99.90;;;;;;5039081;28;20064;-64
2021/12/04 06:23:14;;;;;;;19.90;11.95;;;5.80;99.90;;;;;;5037758;28;20124;-65
2021/12/04 06:25:39;;;;;;;16.48;11.20;;;5.80;99.90;;;;;;5039970;28;20041;-65
2021/12/04 06:28:05;;;;;;;15.70;11.10;;;5.80;99.90;;;;;;5038833;28;20116;-64
2021/12/04 06:30:35;;;;;;;18.45;11.02;;;5.90;99.90;;;;;;5043348;28;20087;-65
2021/12/04 06:33:02;;;;;;;16.20;11.27;;;5.90;99.90;;;;;;5047837;28;20123;-65
2021/12/04 06:35:28;;;;;;;18.90;11.07;;;5.90;99.90;;;;;;5048830;28;20041;-64
2021/12/04 06:37:54;;;;;;;17.05;11.35;;;5.90;99.90;;;;;;5046518;28;20051;-64
2021/12/04 06:40:25;;;;;;;16.58;10.88;;;5.90;99.90;;;;;;5046471;28;20364;-65
2021/12/04 06:42:50;;;;;;;17.88;11.70;;;5.90;99.90;;;;;;5044942;28;20603;-64
2021/12/04 06:45:16;;;;;;;18.30;10.90;;;5.90;99.90;;;;;;5048065;28;20120;-63
2021/12/04 06:47:49;;;;;;;16.67;10.93;;;5.90;99.90;;;;;;5040626;28;20057;-64
2021/12/04 06:50:23;;;;;;;19.70;12.10;;;5.90;99.90;;;;;;5049015;28;20063;-63
2021/12/04 06:52:49;;;;;;;18.45;11.38;;;5.90;99.90;;;;;;5053041;28;20479;-63
2021/12/04 06:55:16;;;;;;;19.83;12.10;;;5.90;99.90;;;;;;5046716;28;20117;-63
2021/12/04 06:57:43;;;;;;;20.67;11.68;;;5.90;99.90;;;;;;5047772;28;20049;-64
2021/12/04 07:00:11;;;;;;;20.42;10.93;;;5.90;99.90;;;;;;5045532;28;20049;-64
2021/12/04 07:02:37;;;;;;;17.75;11.50;;;5.90;99.90;;;;;;5044045;28;20043;-64
2021/12/04 07:05:04;;;;;;;18.08;11.05;;;5.90;99.90;;;;;;5041689;28;20108;-65
2021/12/04 07:07:32;;;;;;;19.02;11.63;;;5.80;99.90;;;;;;5039624;28;20041;-65
2021/12/04 07:09:58;;;;;;;18.20;11.10;;;5.90;99.90;;;;;;5024117;28;20068;-65
2021/12/04 07:12:24;;;;;;;18.42;11.13;;;5.90;99.90;;;;;;5045266;28;20482;-65
2021/12/04 07:14:55;;;;;;;17.80;11.48;;;5.90;99.90;;;;;;5027346;28;20087;-66
2021/12/04 07:17:24;;;;;;;16.20;10.32;;;5.90;99.90;;;;;;5038712;28;20072;-65
2021/12/04 07:19:49;;;;;;;17.10;10.63;;;5.90;99.90;;;;;;5046014;28;20123;-66
2021/12/04 07:22:15;;;;;;;16.98;10.95;;;5.90;99.90;;;;;;5043188;28;20091;-66
2021/12/04 07:24:46;;;;;;;17.77;10.57;;;5.90;99.90;;;;;;5030920;28;20173;-64
2021/12/04 07:27:12;;;;;;;14.70;9.38;;;5.80;99.90;;;;;;5054382;28;20103;-64
2021/12/04 07:29:37;;;;;;;14.48;9.00;;;5.80;99.90;;;;;;5054257;28;20047;-66
2021/12/04 07:32:03;;;;;;;14.00;9.50;;;5.80;99.90;;;;;;5061391;28;20530;-66
2021/12/04 07:34:29;;;;;;;14.68;9.68;;;5.80;99.90;;;;;;5040344;28;20089;-66
2021/12/04 07:36:54;;;;;;;13.48;8.63;;;5.90;99.90;;;;;;5036995;28;20081;-66
2021/12/04 07:39:20;;;;;;;15.00;8.48;;;5.90;99.90;;;;;;5035285;28;20057;-66
2021/12/04 07:41:45;;;;;;;13.25;8.27;;;5.90;99.90;;;;;;5044580;28;20452;-66
2021/12/04 07:44:12;;;;;;;13.63;8.40;;;5.80;99.90;;;;;;5033384;28;20049;-66
2021/12/04 07:46:39;;;;;;;12.32;8.63;;;5.90;99.90;;;;;;5051853;28;20053;-65
2021/12/04 07:49:05;;;;;;;13.38;8.40;;;5.90;99.90;;;;;;5046424;28;21251;-66
2021/12/04 07:51:32;;;;;;;12.82;8.18;;;5.90;99.90;;;;;;5042081;28;20075;-65
2021/12/04 07:53:58;;;;;;;11.88;8.27;;;5.90;99.90;;;;;;5045812;28;20049;-65
2021/12/04 07:56:23;;;;;;;12.88;8.57;;;5.90;99.90;;;;;;5050261;28;20101;-65
2021/12/04 07:58:49;;;;;;;13.68;9.10;;;5.90;99.90;;;;;;5049899;28;20102;-64
2021/12/04 08:01:16;;;;;;;14.23;9.23;;;5.90;99.90;;;;;;5044592;28;20491;-64
2021/12/04 08:03:41;;;;;;;13.57;9.27;;;5.90;99.90;;;;;;5051159;28;20094;-64
2021/12/04 08:06:07;;;;;;;14.73;9.82;;;5.90;99.90;;;;;;5049821;28;20048;-64
2021/12/04 08:08:33;;;;;;;14.85;9.68;;;5.90;99.90;;;;;;5049163;28;20128;-65
2021/12/04 08:10:59;;;;;;;15.88;10.18;;;5.90;99.90;;;;;;5048542;28;20148;-64
2021/12/04 08:13:25;;;;;;;17.88;10.65;;;5.90;99.90;;;;;;5044636;28;20041;-64
2021/12/04 08:15:51;;;;;;;16.10;10.20;;;5.80;99.90;;;;;;5054359;28;20124;-64
2021/12/04 08:18:16;;;;;;;17.92;10.68;;;5.80;99.90;;;;;;5047803;28;20044;-64
2021/12/04 08:20:42;;;;;;;20.90;11.48;;;5.90;99.90;;;;;;5050207;28;20592;-64
2021/12/04 08:23:08;;;;;;;17.35;11.02;;;5.90;99.90;;;;;;5045608;28;20425;-64
2021/12/04 08:25:33;;;;;;;21.83;11.65;;;5.90;99.90;;;;;;5050306;28;20495;-64
2021/12/04 08:28:00;;;;;;;19.67;11.93;;;5.90;99.90;;;;;;5049796;28;20037;-64
2021/12/04 08:30:31;;;;;;;21.65;12.55;;;5.90;99.90;;;;;;5050950;28;20029;-64
2021/12/04 08:32:56;;;;;;;18.33;11.30;;;5.90;99.90;;;;;;5049425;28;20043;-64
2021/12/04 08:35:25;;;;;;;20.38;11.57;;;5.90;99.90;;;;;;5048374;28;20033;-63
2021/12/04 08:37:53;;;;;;;18.98;11.13;;;5.90;99.90;;;;;;5040415;28;20099;-64
2021/12/04 08:40:19;;;;;;;18.17;11.02;;;6.00;99.90;;;;;;5045836;28;20484;-64
2021/12/04 08:42:46;;;;;;;23.17;11.73;;;6.00;99.90;;;;;;5049250;28;20088;-64
2021/12/04 08:45:14;;;;;;;20.20;12.13;;;6.00;99.90;;;;;;5043331;28;20037;-65
2021/12/04 08:47:40;;;;;;;21.83;12.35;;;6.00;99.90;;;;;;5043767;28;20037;-64
2021/12/04 08:50:09;;;;;;;23.50;12.18;;;6.00;99.90;;;;;;5051884;28;20064;-64
2021/12/04 08:52:36;;;;;;;20.98;12.60;;;6.00;99.90;;;;;;5043784;28;20102;-64
2021/12/04 08:55:04;;;;;;;17.95;11.40;;;6.00;99.90;;;;;;5059682;28;20048;-64
2021/12/04 08:57:29;;;;;;;20.40;11.48;;;6.00;99.90;;;;;;5051031;28;20045;-64
2021/12/04 08:59:55;;;;;;;21.33;11.82;;;6.00;99.90;;;;;;5045442;28;20064;-65
2021/12/04 09:02:20;;;;;;;21.15;12.20;;;6.00;99.90;;;;;;5049560;28;20100;-64
2021/12/04 09:04:47;;;;;;;20.45;11.63;;;6.00;99.90;;;;;;5047817;28;20104;-64
2021/12/04 09:07:14;;;;;;;20.38;12.07;;;6.00;99.90;;;;;;5043544;28;20143;-64
2021/12/04 09:09:40;;;;;;;18.50;11.35;;;6.00;99.90;;;;;;5048805;28;20045;-64
2021/12/04 09:12:09;;;;;;;20.77;11.48;;;6.00;99.90;;;;;;5049741;28;20040;-64
2021/12/04 09:14:37;;;;;;;19.23;11.95;;;6.00;99.90;;;;;;5046240;28;20079;-64
2021/12/04 09:17:05;;;;;;;20.35;11.90;;;6.00;99.90;;;;;;5043173;28;20049;-64
2021/12/04 09:19:31;;;;;;;19.77;12.45;;;6.00;99.90;;;;;;5049500;28;20112;-65
2021/12/04 09:21:58;;;;;;;20.10;11.48;;;6.00;99.90;;;;;;5046307;28;20478;-64
2021/12/04 09:24:27;;;;;;;16.00;10.23;;;6.10;99.90;;;;;;5045478;28;20524;-63
2021/12/04 10:04:51;;;;;;;22.38;11.93;;;6.30;99.90;;;;;;5047550;28;20753;-64
2021/12/04 10:13:15;;;;;;;23.10;13.02;;;6.30;99.90;;;;;;5047416;28;20048;-64
2021/12/04 10:15:59;;;;;;;25.52;13.80;;;6.30;99.90;;;;;;5052105;28;20068;-64
2021/12/04 10:18:53;;;;;;;;;;;6.30;99.90;;;;;;5050750;28;20487;-64
2021/12/04 10:21:35;;;;;;;25.48;13.68;;;6.40;99.90;;;;;;5051431;28;19948;-63
2021/12/04 10:32:07;;;;;;;24.85;14.05;;;6.30;99.90;;;;;;5035840;28;20128;-63
2021/12/04 10:35:19;;;;;;;24.15;14.13;;;6.30;99.90;;;;;;5033427;28;20486;-62
2021/12/04 10:37:51;;;;;;;25.85;14.55;;;6.40;99.90;;;;;;5039502;28;20056;-61
2021/12/04 10:40:19;;;;;;;23.42;14.38;;;6.40;99.90;;;;;;5035547;28;20395;-62
2021/12/04 10:42:57;;;;;;;25.23;14.30;;;6.40;99.90;;;;;;5048327;28;20075;-63
2021/12/04 10:45:35;;;;;;;26.30;13.98;;;6.40;99.90;;;;;;5047209;28;20476;-65
2021/12/04 10:48:07;;;;;;;24.33;13.80;;;6.40;99.90;;;;;;5044956;28;20528;-62
2021/12/04 10:50:41;;;;;;;25.20;14.55;;;6.40;99.90;;;;;;5037619;28;20073;-63
2021/12/04 10:53:14;;;;;;;23.08;13.38;;;6.30;99.90;;;;;;5045107;28;20132;-62
2021/12/04 11:04:07;;;;;;;25.15;14.65;;;6.30;99.90;;;;;;5035958;28;20141;-62
2021/12/04 11:06:50;;;;;;;26.00;15.85;;;6.40;99.90;;;;;;5036876;28;20106;-62
2021/12/04 11:40:26;;;;;;;25.77;13.57;;;6.60;99.90;;;;;;5046623;28;20155;-63
2021/12/04 11:42:57;;;;;;;22.90;12.60;;;6.60;99.90;;;;;;5049513;28;20504;-64
2021/12/04 11:45:30;;;;;;;24.75;12.77;;;6.60;99.90;;;;;;5046681;28;20040;-63
2021/12/04 11:48:01;;;;;;;29.27;14.40;;;6.60;99.90;;;;;;5036089;28;20030;-63
2021/12/04 11:50:34;;;;;;;27.45;14.27;;;6.70;99.90;;;;;;5047254;28;20523;-63
2021/12/04 11:53:03;;;;;;;25.98;13.65;;;6.70;99.90;;;;;;5048853;28;20132;-64
2021/12/04 11:55:34;;;;;;;25.60;13.32;;;6.80;99.90;;;;;;5047530;28;20136;-63
2021/12/04 11:58:00;;;;;;;23.95;12.45;;;6.70;99.90;;;;;;5045808;28;20445;-64
2021/12/04 12:00:29;;;;;;;25.70;13.15;;;6.70;99.90;;;;;;5046723;28;20045;-62
2021/12/04 12:03:19;;;;;;;26.00;13.10;;;6.70;99.90;;;;;;5047520;28;20105;-63
2021/12/04 12:05:46;;;;;;;22.30;12.93;;;6.70;99.90;;;;;;5045394;28;20049;-64
2021/12/04 12:08:35;;;;;;;23.50;13.73;;;6.70;99.90;;;;;;5042583;28;20044;-63
2021/12/04 12:11:10;;;;;;;23.40;12.80;;;6.70;99.90;;;;;;5046124;28;20037;-62
2021/12/04 12:13:44;;;;;;;24.48;12.60;;;6.60;99.90;;;;;;5042656;28;20045;-62
2021/12/04 12:16:16;;;;;;;22.95;12.85;;;6.60;99.90;;;;;;5045290;28;20037;-63
2021/12/04 12:18:46;;;;;;;25.90;12.60;;;6.60;99.90;;;;;;5043305;28;20111;-63
2021/12/04 12:21:14;;;;;;;24.42;12.55;;;6.60;99.90;;;;;;5050517;28;20064;-63
2021/12/04 12:27:18;;;;;;;26.85;13.02;;;6.60;99.90;;;;;;5038247;28;20124;-63
2021/12/04 12:33:28;;;;;;;28.75;13.75;;;6.60;99.90;;;;;;5039971;28;20060;-62
2021/12/04 12:36:13;;;;;;;29.50;14.02;;;6.60;99.90;;;;;;5047362;28;20106;-64
2021/12/04 12:38:51;;;;;;;29.60;13.90;;;6.60;99.90;;;;;;5035370;28;20049;-63
2021/12/04 12:41:42;;;;;;;25.95;13.73;;;6.60;99.90;;;;;;5038509;28;20073;-64
2021/12/04 12:44:09;;;;;;;25.00;12.88;;;6.60;99.90;;;;;;5046506;28;20110;-63
2021/12/04 12:46:49;;;;;;;26.38;13.30;;;6.60;99.90;;;;;;5047899;28;20033;-65
2021/12/04 12:49:28;;;;;;;29.23;14.05;;;6.60;99.90;;;;;;5049626;28;20041;-64
2021/12/04 12:51:59;;;;;;;28.70;13.45;;;6.60;99.90;;;;;;5046342;28;20115;-62
2021/12/04 12:54:43;;;;;;;25.63;12.90;;;6.60;99.90;;;;;;5051428;28;20072;-62
2021/12/04 12:57:17;;;;;;;26.90;13.73;;;6.60;99.90;;;;;;5046608;28;20073;-62
2021/12/04 13:11:35;;;;;;;26.58;12.88;;;6.60;99.90;;;;;;5037460;28;20436;-62
2021/12/04 13:11:42;;;;;;;28.75;14.90;;;6.60;99.90;;;;;;5043044;28;20056;-63
2021/12/04 13:14:24;;;;;;;29.50;15.10;;;6.60;99.90;;;;;;5043927;28;20053;-62
2021/12/04 13:17:03;;;;;;;26.90;14.27;;;6.60;99.90;;;;;;5050209;28;20129;-62
2021/12/04 13:19:29;;;;;;;26.50;14.80;;;6.60;99.90;;;;;;5037627;28;20045;-63
2021/12/04 13:22:02;;;;;;;25.75;14.65;;;6.60;99.90;;;;;;5044792;28;20037;-62
2021/12/04 13:24:33;;;;;;;24.95;14.88;;;6.60;99.90;;;;;;5039289;28;20132;-62
2021/12/04 13:29:50;;;;;;;27.95;14.32;;;6.50;99.90;;;;;;5041641;28;20439;-63
2021/12/04 13:32:26;;;;;;;24.95;14.60;;;6.50;99.90;;;;;;5035503;28;20084;-63
2021/12/04 13:34:52;;;;;;;26.17;13.77;;;6.50;99.90;;;;;;5043795;28;20052;-62
2021/12/04 13:37:25;;;;;;;23.88;14.38;;;6.50;99.90;;;;;;5035752;28;20049;-63
2021/12/04 13:39:56;;;;;;;28.88;15.48;;;6.50;99.90;;;;;;5045269;28;20045;-63
2021/12/04 13:42:22;;;;;;;26.15;15.05;;;6.50;99.90;;;;;;5046368;28;20124;-62
2021/12/04 13:44:47;;;;;;;29.73;15.50;;;6.50;99.90;;;;;;5040692;28;20049;-62
2021/12/04 13:47:13;;;;;;;24.88;15.07;;;6.50;99.90;;;;;;5041900;28;20115;-62
2021/12/04 13:50:06;;;;;;;25.95;14.60;;;6.50;99.90;;;;;;5043111;28;20444;-61
2021/12/04 13:52:32;;;;;;;29.50;15.73;;;6.50;99.90;;;;;;5041640;28;20052;-62
2021/12/04 13:55:11;;;;;;;26.02;15.00;;;6.50;99.90;;;;;;5043647;28;20752;-62
2021/12/04 13:57:41;;;;;;;28.40;13.93;;;6.50;99.90;;;;;;5039855;28;20045;-61
2021/12/04 14:00:10;;;;;;;30.77;16.63;;;6.50;99.90;;;;;;5044093;28;20048;-62
2021/12/04 14:02:35;;;;;;;29.98;15.48;;;6.60;99.90;;;;;;5041952;28;20045;-63
2021/12/04 14:05:13;;;;;;;30.92;16.98;;;6.50;99.90;;;;;;5035035;28;20112;-62
2021/12/04 14:07:50;;;;;;;32.08;16.70;;;6.50;99.90;;;;;;5034457;28;20041;-64
2021/12/04 14:10:26;;;;;;;29.25;15.82;;;6.50;99.90;;;;;;5044752;28;20064;-62
2021/12/04 14:12:53;;;;;;;34.00;17.05;;;6.50;99.90;;;;;;5041536;28;20063;-63
2021/12/04 14:15:20;;;;;;;32.70;17.20;;;6.50;99.90;;;;;;5047220;28;20132;-62
2021/12/04 14:17:49;;;;;;;29.48;16.33;;;6.50;99.90;;;;;;5038775;28;20040;-63
2021/12/04 14:20:20;;;;;;;30.42;15.80;;;6.50;99.90;;;;;;5047970;28;20052;-61
2021/12/04 14:22:48;;;;;;;29.00;15.98;;;6.50;99.90;;;;;;5044068;28;20075;-63
2021/12/04 14:25:16;;;;;;;30.05;16.13;;;6.50;99.90;;;;;;5049111;28;20049;-65
2021/12/04 14:27:42;;;;;;;27.80;16.00;;;6.50;99.90;;;;;;5044947;28;20045;-59
2021/12/04 14:30:25;;;;;;;28.48;15.60;;;6.50;99.90;;;;;;5048337;28;20292;-60
2021/12/04 14:32:54;;;;;;;26.35;14.85;;;6.50;99.90;;;;;;5050935;28;20041;-60
2021/12/04 14:35:23;;;;;;;27.45;15.93;;;6.50;99.90;;;;;;5046491;28;20147;-59
2021/12/04 14:37:52;;;;;;;27.95;14.68;;;6.60;99.90;;;;;;5025107;28;20061;-59
2021/12/04 14:40:34;;;;;;;26.50;15.27;;;6.50;99.90;;;;;;5043457;28;20480;-60
2021/12/04 14:43:03;;;;;;;26.02;14.25;;;6.50;99.90;;;;;;5037023;28;20041;-60
2021/12/04 14:45:33;;;;;;;27.80;15.18;;;6.50;99.90;;;;;;5041285;28;20048;-60
2021/12/04 14:48:08;;;;;;;26.63;14.63;;;6.60;99.90;;;;;;5053094;28;20547;-59
2021/12/04 14:50:36;;;;;;;;;;;6.50;99.90;;;;;;5033727;28;20405;-59
2021/12/04 14:53:04;;;;;;;24.55;13.85;;;6.50;99.90;;;;;;5042975;28;19920;-59
2021/12/04 14:55:38;;;;;;;25.58;14.60;;;6.50;99.90;;;;;;5041671;28;20068;-60
2021/12/04 14:58:14;;;;;;;26.20;13.83;;;6.60;99.90;;;;;;5045743;28;20132;-60
2021/12/04 15:00:47;;;;;;;26.30;14.60;;;6.60;99.90;;;;;;5045896;28;20059;-59
2021/12/04 15:03:16;;;;;;;26.90;16.17;;;6.60;99.90;;;;;;5050265;28;20148;-59
2021/12/04 15:05:50;;;;;;;26.23;15.13;;;6.50;99.90;;;;;;5048690;28;20053;-60
2021/12/04 15:08:20;;;;;;;27.17;14.35;;;6.60;99.90;;;;;;5049402;28;20124;-59
2021/12/04 15:11:05;;;;;;;24.63;13.70;;;6.60;99.90;;;;;;5049087;28;20068;-59
2021/12/04 15:13:42;;;;;;;25.48;14.43;;;6.60;99.90;;;;;;5050179;28;20048;-59
2021/12/04 15:16:12;;;;;;;27.42;15.18;;;6.50;99.90;;;;;;5054002;28;20541;-58
2021/12/04 15:18:39;;;;;;;28.80;15.05;;;6.50;99.90;;;;;;5051270;28;20107;-59
2021/12/04 15:21:13;;;;;;;27.13;15.43;;;6.50;99.90;;;;;;5050049;28;20041;-60
2021/12/04 15:23:39;;;;;;;23.27;14.60;;;6.50;99.90;;;;;;5055809;28;20195;-60
2021/12/04 15:26:17;;;;;;;23.73;14.35;;;6.50;99.90;;;;;;5052075;28;20044;-60
2021/12/04 15:28:47;;;;;;;22.20;13.57;;;6.50;99.90;;;;;;5049943;28;20055;-60
2021/12/04 15:31:13;;;;;;;22.63;14.50;;;6.50;99.90;;;;;;5057384;28;20469;-60
2021/12/04 15:33:41;;;;;;;25.10;14.77;;;6.40;99.90;;;;;;5053504;28;20061;-59
2021/12/04 15:36:19;;;;;;;21.83;13.85;;;6.40;99.90;;;;;;5053017;28;20377;-60
2021/12/04 15:38:50;;;;;;;21.90;13.70;;;6.50;99.90;;;;;;5043028;28;20046;-60
2021/12/04 15:54:20;;;;;;;23.38;14.20;;;6.50;99.90;;;;;;5048194;28;20452;-60
2021/12/04 15:56:49;;;;;;;22.13;13.95;;;6.50;99.90;;;;;;5046151;28;20052;-60
2021/12/04 15:59:20;;;;;;;21.95;14.68;;;6.50;99.90;;;;;;5043211;28;20044;-60